Time;durP1;ratioP1;P1;durP2;ratioP2;P2;SDS_P1;SDS_P2;PMS_P1;PMS_P2;Temp;Humidity;BMP_temperature;BMP_pressure;BME280_temperature;BME280_humidity;BME280_pressure;Samples;Min_cycle;Max_cycle;Signal;HPM_P1;HPM_P2
2023/06/17 13:01:20;;;;;;;4.63;4.22;;;26.60;57.80;;;;;;5067790;28;20162;-79
2023/06/17 13:03:46;;;;;;;6.50;4.60;;;26.60;58.90;;;;;;5061640;28;20745;-78
2023/06/17 13:06:13;;;;;;;4.97;4.00;;;26.50;60.90;;;;;;5058475;28;20039;-78
2023/06/17 13:08:39;;;;;;;4.50;4.10;;;26.50;62.10;;;;;;5061229;28;20059;-80
2023/06/17 13:11:08;;;;;;;6.20;4.50;;;26.70;63.30;;;;;;5055182;28;20040;-78
2023/06/17 13:13:34;;;;;;;5.28;4.05;;;26.80;54.80;;;;;;5061179;28;20018;-79
2023/06/17 13:16:01;;;;;;;7.20;4.00;;;27.00;55.10;;;;;;5058037;28;20025;-80
2023/06/17 13:18:28;;;;;;;6.75;3.90;;;27.00;48.70;;;;;;5069088;28;20039;-78
2023/06/17 13:21:11;;;;;;;6.13;3.57;;;27.10;56.90;;;;;;5063952;28;20079;-79
2023/06/17 13:23:37;;;;;;;4.15;3.17;;;27.20;64.00;;;;;;5063096;28;20302;-78
2023/06/17 13:26:04;;;;;;;4.15;3.65;;;27.30;61.40;;;;;;5066647;28;20032;-83
2023/06/17 13:28:32;;;;;;;4.00;3.60;;;27.60;58.70;;;;;;5059410;28;20021;-81
2023/06/17 13:31:02;;;;;;;4.60;2.95;;;27.60;53.00;;;;;;5046443;28;20051;-82
2023/06/17 13:33:28;;;;;;;3.42;3.15;;;27.80;54.80;;;;;;5063207;28;20478;-82
2023/06/17 13:35:53;;;;;;;4.20;3.33;;;27.90;57.20;;;;;;5061372;28;20132;-84
2023/06/17 13:38:19;;;;;;;4.93;4.00;;;27.80;54.50;;;;;;5051592;28;20033;-82
2023/06/17 13:40:45;;;;;;;4.40;3.60;;;27.80;53.60;;;;;;5058676;28;20135;-85
2023/06/17 13:43:11;;;;;;;6.07;3.17;;;27.80;53.90;;;;;;5060061;28;20645;-83
2023/06/17 13:45:37;;;;;;;5.15;3.58;;;27.60;49.40;;;;;;5060571;28;20028;-81
2023/06/17 13:48:03;;;;;;;5.25;3.28;;;27.60;54.00;;;;;;5061429;28;20112;-85
2023/06/17 13:50:29;;;;;;;4.35;3.78;;;27.50;54.60;;;;;;5063901;28;20136;-81
2023/06/17 13:52:55;;;;;;;3.55;3.25;;;27.50;49.50;;;;;;5071517;28;20096;-81
2023/06/17 13:55:21;;;;;;;6.72;3.33;;;27.40;49.90;;;;;;5058015;28;20622;-82
2023/06/17 13:57:46;;;;;;;4.22;3.40;;;27.20;55.60;;;;;;5064409;28;20134;-81
2023/06/17 14:00:12;;;;;;;3.05;2.85;;;27.10;53.70;;;;;;5075017;28;20041;-81
2023/06/17 14:02:38;;;;;;;5.28;3.50;;;26.80;53.30;;;;;;5082741;28;20028;-83
2023/06/17 14:05:04;;;;;;;4.03;3.65;;;26.50;54.80;;;;;;5045701;28;20541;-82
2023/06/17 14:07:31;;;;;;;4.03;3.05;;;26.30;53.30;;;;;;5082630;28;20115;-81
2023/06/17 14:09:56;;;;;;;3.15;2.95;;;26.10;51.40;;;;;;5080102;28;20119;-83
2023/06/17 14:12:22;;;;;;;7.90;4.22;;;26.10;53.00;;;;;;5078041;28;20061;-82
2023/06/17 14:14:48;;;;;;;3.85;3.45;;;25.90;51.90;;;;;;5069602;28;20028;-79
2023/06/17 14:17:14;;;;;;;5.30;3.42;;;25.90;50.90;;;;;;5049328;28;20115;-78
2023/06/17 14:19:40;;;;;;;3.17;2.88;;;25.70;55.10;;;;;;5067149;28;20021;-79
2023/06/17 14:22:06;;;;;;;3.60;3.30;;;25.70;56.10;;;;;;5050668;28;20017;-81
2023/06/17 14:24:35;;;;;;;6.50;3.38;;;25.60;55.30;;;;;;5064353;28;20440;-79
2023/06/17 14:27:29;;;;;;;7.50;3.90;;;25.60;54.70;;;;;;5053892;28;20033;-80
2023/06/17 14:29:55;;;;;;;4.78;3.15;;;25.50;55.40;;;;;;5063783;28;20088;-80
2023/06/17 14:32:21;;;;;;;4.03;3.53;;;25.40;56.00;;;;;;5068826;28;20119;-83
2023/06/17 14:34:46;;;;;;;4.05;3.20;;;25.40;57.70;;;;;;5067610;28;20029;-79
2023/06/17 14:37:12;;;;;;;6.80;3.55;;;25.30;54.20;;;;;;5049261;28;20036;-79
2023/06/17 14:39:38;;;;;;;3.20;2.90;;;25.10;55.20;;;;;;5068610;28;20116;-80
2023/06/17 14:42:04;;;;;;;3.60;3.20;;;25.00;56.80;;;;;;5068053;28;20025;-79
2023/06/17 14:44:30;;;;;;;4.20;3.15;;;25.00;56.00;;;;;;5045491;28;20492;-78
2023/06/17 14:46:55;;;;;;;4.03;3.28;;;25.00;56.50;;;;;;5074165;28;20063;-79
2023/06/17 14:49:21;;;;;;;3.58;3.00;;;24.90;57.80;;;;;;5068471;28;20029;-80
2023/06/17 14:51:48;;;;;;;3.42;3.13;;;24.80;58.80;;;;;;5071680;28;20024;-79
2023/06/17 14:54:13;;;;;;;3.92;3.20;;;24.80;55.30;;;;;;5071478;28;20029;-80
2023/06/17 14:56:39;;;;;;;4.53;3.45;;;24.90;56.70;;;;;;5069263;28;20029;-80
2023/06/17 14:59:05;;;;;;;5.13;3.60;;;24.80;59.20;;;;;;5049993;28;20048;-80
2023/06/17 15:01:38;;;;;;;4.13;3.70;;;24.60;60.70;;;;;;5067805;28;20028;-79
2023/06/17 15:04:12;;;;;;;10.38;3.72;;;24.50;57.90;;;;;;5066814;28;20123;-80
2023/06/17 15:06:38;;;;;;;4.97;3.45;;;24.30;58.30;;;;;;5074585;28;20020;-80
2023/06/17 15:10:13;;;;;;;5.75;3.97;;;24.20;59.00;;;;;;5054032;28;20099;-80
2023/06/17 15:12:45;;;;;;;6.63;3.60;;;24.20;61.10;;;;;;5053806;28;20031;-80
2023/06/17 15:15:13;;;;;;;4.00;3.60;;;24.00;61.70;;;;;;5069835;28;20033;-83
2023/06/17 15:17:40;;;;;;;4.60;3.88;;;23.90;58.60;;;;;;5071639;28;20029;-80
2023/06/17 15:20:06;;;;;;;7.88;7.15;;;23.80;59.70;;;;;;5071019;28;20032;-80
2023/06/17 15:22:32;;;;;;;6.32;3.92;;;23.90;56.10;;;;;;5075787;28;20392;-81
2023/06/17 15:24:58;;;;;;;4.10;3.42;;;23.90;56.80;;;;;;5072627;28;20024;-80
2023/06/17 15:27:23;;;;;;;4.10;3.65;;;24.00;60.80;;;;;;5073032;28;20121;-79
2023/06/17 15:29:49;;;;;;;4.35;3.42;;;24.00;59.70;;;;;;5078697;28;20040;-81
2023/06/17 15:32:15;;;;;;;3.65;3.33;;;23.90;59.10;;;;;;5073236;28;20028;-83
2023/06/17 15:34:41;;;;;;;3.45;3.10;;;23.90;60.00;;;;;;5075294;28;20099;-81
2023/06/17 15:37:07;;;;;;;4.10;3.70;;;23.80;59.10;;;;;;5068740;28;20048;-81
2023/06/17 15:39:33;;;;;;;3.40;3.10;;;23.80;62.80;;;;;;5073505;28;20514;-83
2023/06/17 15:41:58;;;;;;;3.95;3.38;;;23.70;63.90;;;;;;5050263;28;20028;-81
2023/06/17 15:44:24;;;;;;;3.38;3.13;;;23.70;63.70;;;;;;5067332;28;20037;-81
2023/06/17 15:46:50;;;;;;;3.70;3.40;;;23.70;61.60;;;;;;5082422;28;20060;-80
2023/06/17 15:49:17;;;;;;;16.40;14.93;;;23.80;58.50;;;;;;5071496;28;20707;-81
2023/06/17 15:51:43;;;;;;;4.90;4.50;;;23.90;53.60;;;;;;5052817;28;20123;-82
2023/06/17 15:54:09;;;;;;;4.93;3.72;;;24.10;55.20;;;;;;5077225;28;20067;-81
2023/06/17 15:56:37;;;;;;;8.25;7.45;;;24.20;53.00;;;;;;5069141;28;20036;-84
2023/06/17 15:59:03;;;;;;;5.45;4.25;;;24.30;52.70;;;;;;5068818;28;20029;-82
2023/06/17 16:01:29;;;;;;;4.25;3.55;;;24.40;56.40;;;;;;5070778;28;20017;-81
2023/06/17 16:03:58;;;;;;;4.35;3.95;;;24.30;60.30;;;;;;5069492;28;20074;-82
2023/06/17 16:06:24;;;;;;;5.13;3.67;;;24.20;61.70;;;;;;5051139;28;20020;-84
2023/06/17 16:08:51;;;;;;;3.58;3.28;;;24.00;61.90;;;;;;5072824;28;20369;-83
2023/06/17 16:11:18;;;;;;;4.28;3.17;;;23.80;62.50;;;;;;5053200;28;20063;-83
2023/06/17 16:13:43;;;;;;;4.00;3.38;;;23.70;55.10;;;;;;5070081;28;20421;-82
2023/06/17 16:16:09;;;;;;;3.83;3.42;;;23.50;58.40;;;;;;5081490;28;20032;-85
2023/06/17 16:18:35;;;;;;;4.85;3.72;;;23.40;58.80;;;;;;5035727;28;20029;-81
2023/06/17 16:21:01;;;;;;;4.90;3.72;;;23.30;58.70;;;;;;5076726;28;20182;-81
2023/06/17 16:23:28;;;;;;;3.65;3.28;;;23.20;57.70;;;;;;5051650;28;20127;-83
2023/06/17 16:25:53;;;;;;;4.10;3.50;;;23.10;57.90;;;;;;5052751;28;20086;-82
2023/06/17 16:28:19;;;;;;;4.20;3.63;;;23.00;57.50;;;;;;5068381;28;20029;-82
2023/06/17 16:30:45;;;;;;;3.60;3.20;;;22.80;57.40;;;;;;5060194;28;20064;-85
2023/06/17 16:33:11;;;;;;;4.20;3.80;;;22.70;57.20;;;;;;5053897;28;20035;-84
2023/06/17 16:35:37;;;;;;;4.25;3.85;;;22.60;55.80;;;;;;5080023;28;20093;-81
2023/06/17 16:38:03;;;;;;;3.70;3.30;;;22.60;56.10;;;;;;5068756;28;20465;-80
2023/06/17 16:40:29;;;;;;;4.13;3.70;;;22.50;56.80;;;;;;5071231;28;20040;-81
2023/06/17 16:42:56;;;;;;;3.63;3.33;;;22.50;57.00;;;;;;5068823;28;20041;-83
2023/06/17 16:45:21;;;;;;;4.20;3.80;;;22.50;56.70;;;;;;5052992;28;20044;-81
2023/06/17 16:47:47;;;;;;;4.28;3.88;;;22.50;57.10;;;;;;5069306;28;20036;-81
2023/06/17 16:50:13;;;;;;;6.57;3.80;;;22.50;56.10;;;;;;5066312;28;20024;-84
2023/06/17 16:52:39;;;;;;;6.65;3.72;;;22.70;57.20;;;;;;5080596;28;20116;-81
2023/06/17 16:55:05;;;;;;;6.70;3.60;;;22.80;56.00;;;;;;5072491;28;20025;-84
2023/06/17 16:57:34;;;;;;;4.30;3.90;;;22.80;56.80;;;;;;5056327;28;20595;-85
2023/06/17 17:00:00;;;;;;;3.97;3.50;;;22.80;57.40;;;;;;5068617;28;20085;-84
2023/06/17 17:02:26;;;;;;;4.70;3.42;;;22.90;59.00;;;;;;5070992;28;20024;-81
2023/06/17 17:04:52;;;;;;;3.90;3.50;;;22.90;60.80;;;;;;5049211;28;20071;-82
2023/06/17 17:07:18;;;;;;;5.90;3.30;;;22.90;59.50;;;;;;5033454;28;20049;-81
2023/06/17 17:09:43;;;;;;;4.38;3.92;;;22.80;61.20;;;;;;5067502;28;20039;-81
2023/06/17 17:12:09;;;;;;;3.97;3.58;;;22.70;63.80;;;;;;5064956;28;20556;-81
2023/06/17 17:14:35;;;;;;;5.88;3.88;;;22.60;59.10;;;;;;5067557;28;20025;-82
2023/06/17 17:17:01;;;;;;;3.95;3.55;;;22.50;58.60;;;;;;5051409;28;20454;-81
2023/06/17 17:19:27;;;;;;;3.47;3.17;;;22.40;56.60;;;;;;5048649;28;20028;-82
2023/06/17 17:21:52;;;;;;;3.88;3.58;;;22.30;57.80;;;;;;5064800;28;20467;-81
2023/06/17 17:24:18;;;;;;;4.03;3.60;;;22.20;58.20;;;;;;5052667;28;20043;-83
2023/06/17 17:26:44;;;;;;;5.13;3.92;;;22.10;60.50;;;;;;5069716;28;20041;-84
2023/06/17 17:29:10;;;;;;;4.38;3.90;;;22.00;59.50;;;;;;5029557;28;20123;-83
2023/06/17 17:31:36;;;;;;;5.80;3.83;;;21.90;57.20;;;;;;5055502;28;20033;-82
2023/06/17 17:34:02;;;;;;;4.03;3.63;;;21.90;55.80;;;;;;5047665;28;20064;-82
2023/06/17 17:36:27;;;;;;;4.13;3.70;;;21.90;58.00;;;;;;5051158;28;20130;-83
2023/06/17 17:38:53;;;;;;;5.10;4.03;;;21.80;58.40;;;;;;5070897;28;20059;-83
2023/06/17 17:41:20;;;;;;;3.78;3.38;;;21.80;57.60;;;;;;5050965;28;20469;-83
2023/06/17 17:43:45;;;;;;;4.60;4.10;;;21.70;57.10;;;;;;5066438;28;20051;-81
2023/06/17 17:46:11;;;;;;;5.20;4.10;;;21.70;57.50;;;;;;5074558;28;20036;-81
2023/06/17 17:48:37;;;;;;;3.90;3.53;;;21.70;56.30;;;;;;5071280;28;20028;-81
2023/06/17 17:51:03;;;;;;;4.57;4.00;;;21.70;56.30;;;;;;5059925;28;20177;-81
2023/06/17 17:53:30;;;;;;;4.18;3.78;;;21.70;56.80;;;;;;5067428;28;20068;-83
2023/06/17 17:55:56;;;;;;;3.63;3.33;;;21.80;56.40;;;;;;5072402;28;20392;-81
2023/06/17 17:58:22;;;;;;;5.10;4.05;;;21.90;57.20;;;;;;5053474;28;20044;-81
2023/06/17 18:00:48;;;;;;;5.18;3.92;;;21.90;56.60;;;;;;5075372;28;20046;-80
2023/06/17 18:03:14;;;;;;;4.78;3.88;;;22.00;57.80;;;;;;5064346;28;20036;-81
2023/06/17 18:05:40;;;;;;;5.93;4.47;;;22.00;58.20;;;;;;5070641;28;20025;-83
2023/06/17 18:08:05;;;;;;;4.28;3.83;;;22.00;58.50;;;;;;5047840;28;20037;-83
2023/06/17 18:10:31;;;;;;;4.75;3.83;;;21.90;59.00;;;;;;5058992;28;20041;-82
2023/06/17 18:12:57;;;;;;;4.18;3.78;;;21.80;58.70;;;;;;5063579;28;20036;-82
2023/06/17 18:15:22;;;;;;;7.05;4.30;;;21.80;58.60;;;;;;5070209;28;20021;-82
2023/06/17 18:17:48;;;;;;;4.63;4.10;;;21.80;58.40;;;;;;5064905;28;20029;-81
2023/06/17 18:20:32;;;;;;;6.13;4.13;;;21.80;57.80;;;;;;5083015;28;20066;-82
2023/06/17 18:22:58;;;;;;;5.78;3.97;;;21.80;58.10;;;;;;5059366;28;20040;-80
2023/06/17 18:25:24;;;;;;;5.22;4.07;;;21.80;58.50;;;;;;5068896;28;20028;-79
2023/06/17 18:27:50;;;;;;;4.85;4.18;;;21.80;58.90;;;;;;5060902;28;20036;-80
2023/06/17 18:30:15;;;;;;;5.13;4.15;;;21.70;59.20;;;;;;5065230;28;20111;-81
2023/06/17 18:32:41;;;;;;;4.40;4.00;;;21.70;59.10;;;;;;5068823;28;20033;-82
2023/06/17 18:37:34;;;;;;;3.97;3.65;;;21.50;59.60;;;;;;5028576;28;20049;-87
2023/06/17 18:40:01;;;;;;;5.35;4.07;;;21.40;60.20;;;;;;5017762;28;20091;-86
2023/06/17 18:42:27;;;;;;;3.75;3.45;;;21.40;61.00;;;;;;4999106;28;20037;-86
2023/06/17 18:44:53;;;;;;;4.95;3.95;;;21.30;61.80;;;;;;4996284;28;20121;-86
2023/06/17 18:47:19;;;;;;;5.18;4.10;;;21.20;61.50;;;;;;4998239;28;20037;-85
2023/06/17 18:49:44;;;;;;;5.72;4.45;;;21.10;61.80;;;;;;5001843;28;20057;-85
2023/06/17 18:52:10;;;;;;;5.72;4.20;;;21.00;62.40;;;;;;4999117;28;20030;-86
2023/06/17 18:54:36;;;;;;;5.15;4.38;;;21.00;62.80;;;;;;5012435;28;20448;-86
2023/06/17 18:57:02;;;;;;;4.43;3.95;;;20.90;63.60;;;;;;5011121;28;20071;-86
2023/06/17 18:59:27;;;;;;;5.05;3.78;;;20.90;63.70;;;;;;4983420;28;20103;-85
2023/06/17 19:01:53;;;;;;;5.28;4.47;;;20.90;62.50;;;;;;4994912;28;20040;-84
2023/06/17 19:04:19;;;;;;;4.75;3.97;;;20.90;64.30;;;;;;4972408;28;20030;-85
2023/06/17 19:06:45;;;;;;;4.30;3.90;;;20.80;65.10;;;;;;5008985;28;20687;-86
2023/06/17 19:09:11;;;;;;;4.72;4.32;;;20.80;66.70;;;;;;4983504;28;20038;-84
2023/06/17 19:11:37;;;;;;;5.00;4.50;;;20.80;65.20;;;;;;4982790;28;20494;-85
2023/06/17 19:14:02;;;;;;;6.18;4.50;;;20.70;65.50;;;;;;4996849;28;20044;-86
2023/06/17 19:16:28;;;;;;;6.10;4.53;;;20.60;65.40;;;;;;5002917;28;20034;-86
2023/06/17 19:18:57;;;;;;;4.97;4.47;;;20.50;65.50;;;;;;5023930;28;20096;-86
2023/06/17 19:21:23;;;;;;;5.18;4.63;;;20.40;65.80;;;;;;4981518;28;20040;-84
2023/06/17 19:23:49;;;;;;;5.38;4.88;;;20.30;66.20;;;;;;5003063;28;20037;-84
2023/06/17 19:26:16;;;;;;;5.20;4.70;;;20.20;66.30;;;;;;4976304;28;20095;-84
2023/06/17 19:28:42;;;;;;;5.15;4.25;;;20.10;66.80;;;;;;5005580;28;20033;-86
2023/06/17 19:31:07;;;;;;;5.65;4.90;;;20.00;68.30;;;;;;4993537;28;20033;-85
2023/06/17 19:33:33;;;;;;;6.45;4.68;;;19.80;68.00;;;;;;5000223;28;20026;-84
2023/06/17 19:35:59;;;;;;;5.75;5.15;;;19.70;68.70;;;;;;5007547;28;20513;-85
2023/06/17 19:38:25;;;;;;;5.10;4.60;;;19.70;69.60;;;;;;4968307;28;20057;-86
2023/06/17 19:40:50;;;;;;;6.80;4.82;;;19.50;69.80;;;;;;5001213;28;20828;-85
2023/06/17 19:43:21;;;;;;;6.45;4.95;;;19.40;69.60;;;;;;5000480;28;20169;-84
2023/06/17 19:45:49;;;;;;;5.35;4.85;;;19.40;70.40;;;;;;4989302;28;20030;-86
2023/06/17 19:48:15;;;;;;;6.25;4.97;;;19.30;71.00;;;;;;4999160;28;20041;-84
2023/06/17 19:50:42;;;;;;;5.70;5.20;;;19.20;72.20;;;;;;5006027;28;20389;-85
2023/06/17 19:53:07;;;;;;;5.85;5.00;;;19.10;71.60;;;;;;5001546;28;20022;-86
2023/06/17 19:55:33;;;;;;;8.80;5.22;;;19.00;72.00;;;;;;4998220;28;20550;-85
2023/06/17 19:57:59;;;;;;;5.20;4.70;;;18.90;71.60;;;;;;4999689;28;20026;-85
2023/06/17 20:00:25;;;;;;;5.60;4.80;;;18.80;71.10;;;;;;4992277;28;20256;-86
2023/06/17 20:02:55;;;;;;;6.03;5.00;;;18.70;71.80;;;;;;4984975;28;20508;-86
2023/06/17 20:05:21;;;;;;;6.78;5.30;;;18.60;71.80;;;;;;5009873;28;20056;-84
2023/06/17 20:07:48;;;;;;;6.03;5.32;;;18.50;72.40;;;;;;5009467;28;20038;-85
2023/06/17 20:10:17;;;;;;;5.90;5.13;;;18.50;72.80;;;;;;5004153;28;20061;-87
2023/06/17 20:12:43;;;;;;;6.45;5.75;;;18.40;72.70;;;;;;4973807;28;20068;-85
2023/06/17 20:15:09;;;;;;;5.95;5.35;;;18.30;73.70;;;;;;4982511;28;20053;-85
2023/06/17 20:17:35;;;;;;;6.22;5.57;;;18.20;74.20;;;;;;4988676;28;20157;-86
2023/06/17 20:20:01;;;;;;;5.30;4.80;;;18.10;73.70;;;;;;5004351;28;20497;-85
2023/06/17 20:22:27;;;;;;;8.40;5.65;;;18.00;74.50;;;;;;5003271;28;20037;-86
2023/06/17 20:24:53;;;;;;;7.05;5.25;;;17.90;76.30;;;;;;4981783;28;20037;-85
2023/06/17 20:27:19;;;;;;;5.68;5.10;;;17.80;76.90;;;;;;4977345;28;20493;-85
2023/06/17 20:29:44;;;;;;;7.40;5.30;;;17.70;78.30;;;;;;5009272;28;20445;-84
2023/06/17 20:32:13;;;;;;;7.68;6.00;;;17.70;78.70;;;;;;5005291;28;20061;-85
2023/06/17 20:34:39;;;;;;;5.93;5.07;;;17.70;78.90;;;;;;5001341;28;20029;-85
2023/06/17 20:37:05;;;;;;;6.97;5.90;;;17.70;78.60;;;;;;5016265;28;20040;-85
2023/06/17 20:39:31;;;;;;;6.38;5.78;;;17.60;78.70;;;;;;4988465;28;20033;-84
2023/06/17 20:41:58;;;;;;;7.50;6.13;;;17.60;79.00;;;;;;5008245;28;20033;-86
2023/06/17 20:44:23;;;;;;;6.28;5.68;;;17.50;79.00;;;;;;4987419;28;20084;-87
2023/06/17 20:46:52;;;;;;;7.20;6.45;;;17.50;78.90;;;;;;4988425;28;20132;-84
2023/06/17 20:49:17;;;;;;;6.30;5.70;;;17.40;79.10;;;;;;4978475;28;20034;-87
2023/06/17 20:51:43;;;;;;;6.03;5.43;;;17.40;80.10;;;;;;4979158;28;20026;-85
2023/06/17 20:54:09;;;;;;;6.63;5.93;;;17.30;81.60;;;;;;4988223;28;20042;-84
2023/06/17 20:56:36;;;;;;;7.32;6.50;;;17.30;83.40;;;;;;4975533;28;20057;-85
2023/06/17 20:59:06;;;;;;;7.93;6.60;;;17.20;83.70;;;;;;4991186;28;20529;-87
2023/06/17 21:01:32;;;;;;;7.75;6.85;;;17.10;83.20;;;;;;4991853;28;20025;-84
2023/06/17 21:03:58;;;;;;;7.07;5.95;;;17.00;83.80;;;;;;4972882;28;21435;-86
2023/06/17 21:06:24;;;;;;;6.63;5.93;;;16.90;83.50;;;;;;4980999;28;20450;-87
2023/06/17 21:08:49;;;;;;;6.57;5.88;;;16.90;83.10;;;;;;5000988;28;20042;-85
2023/06/17 21:11:15;;;;;;;9.45;6.05;;;16.80;82.20;;;;;;4984490;28;20057;-85
2023/06/17 21:13:41;;;;;;;7.88;6.68;;;16.70;82.40;;;;;;4999218;28;20033;-84
2023/06/17 21:16:07;;;;;;;7.13;6.13;;;16.60;82.70;;;;;;5001743;28;20037;-85
2023/06/17 21:18:32;;;;;;;6.75;6.05;;;16.60;83.00;;;;;;4978677;28;20022;-87
2023/06/17 21:20:58;;;;;;;6.72;6.03;;;16.50;83.30;;;;;;4971346;28;20391;-86
2023/06/17 21:23:24;;;;;;;8.13;6.18;;;16.50;84.80;;;;;;4986704;28;20474;-86
2023/06/17 21:25:50;;;;;;;7.40;6.45;;;16.50;85.60;;;;;;5008348;28;20034;-85
2023/06/17 21:28:16;;;;;;;8.55;6.30;;;16.40;86.70;;;;;;5008190;28;20030;-86
2023/06/17 21:30:42;;;;;;;8.70;6.32;;;16.40;87.30;;;;;;4988386;28;20038;-86
2023/06/17 21:33:08;;;;;;;11.48;8.50;;;16.40;87.00;;;;;;4992782;28;20065;-85
2023/06/17 21:35:34;;;;;;;7.05;6.35;;;16.20;87.60;;;;;;5022258;28;20060;-86
2023/06/17 21:37:59;;;;;;;7.57;6.60;;;16.10;88.80;;;;;;5008765;28;20454;-87
2023/06/17 21:40:25;;;;;;;8.38;6.78;;;16.00;88.10;;;;;;4978617;28;20343;-86
2023/06/17 21:42:51;;;;;;;8.38;6.90;;;16.00;88.10;;;;;;5007849;28;20049;-86
2023/06/17 21:45:16;;;;;;;7.97;6.43;;;15.90;88.50;;;;;;4983861;28;20038;-86
2023/06/17 21:47:42;;;;;;;8.38;6.97;;;15.90;89.00;;;;;;5007517;28;20033;-86
2023/06/17 21:50:09;;;;;;;9.15;7.20;;;15.90;89.10;;;;;;5009143;28;20069;-85
2023/06/17 21:52:34;;;;;;;7.80;7.00;;;15.90;89.50;;;;;;4987417;28;20069;-88
2023/06/17 21:55:00;;;;;;;9.88;6.90;;;15.80;89.40;;;;;;4977754;28;20056;-87
2023/06/17 21:57:29;;;;;;;7.90;7.10;;;15.80;90.00;;;;;;5007204;28;20045;-86
2023/06/17 21:59:54;;;;;;;9.52;7.15;;;15.80;90.30;;;;;;4997707;28;20148;-85
2023/06/17 22:02:20;;;;;;;7.75;6.93;;;15.70;90.40;;;;;;5013019;28;20095;-86
2023/06/17 22:04:46;;;;;;;9.23;7.13;;;15.70;91.10;;;;;;4997638;28;20038;-86
2023/06/17 22:07:12;;;;;;;10.20;7.35;;;15.70;90.90;;;;;;5011655;28;20501;-87
2023/06/17 22:09:38;;;;;;;9.15;7.55;;;15.70;90.80;;;;;;5021177;28;20046;-86
2023/06/17 22:12:22;;;;;;;7.97;6.78;;;15.70;90.60;;;;;;5016412;28;20159;-85
2023/06/17 22:14:48;;;;;;;9.60;7.43;;;15.70;90.70;;;;;;4990206;28;20061;-86
2023/06/17 22:17:13;;;;;;;9.75;7.28;;;15.70;90.70;;;;;;5002008;28;20022;-87
2023/06/17 22:19:40;;;;;;;9.55;7.68;;;15.60;90.80;;;;;;4977635;28;20493;-84
2023/06/17 22:22:06;;;;;;;9.65;7.35;;;15.70;90.80;;;;;;5012445;28;20093;-86
2023/06/17 22:24:32;;;;;;;9.82;7.95;;;15.60;90.60;;;;;;5000947;28;20069;-86
2023/06/17 22:26:57;;;;;;;9.43;7.60;;;15.60;90.60;;;;;;5008491;28;20029;-85
2023/06/17 22:29:23;;;;;;;9.00;7.35;;;15.50;91.20;;;;;;4997094;28;20033;-86
2023/06/17 22:31:49;;;;;;;8.95;7.60;;;15.50;91.40;;;;;;5009668;28;20054;-85
2023/06/17 22:34:15;;;;;;;8.35;7.38;;;15.40;91.80;;;;;;5009519;28;20030;-86
2023/06/17 22:36:40;;;;;;;8.55;7.40;;;15.40;92.10;;;;;;5001724;28;20034;-86
2023/06/17 22:39:06;;;;;;;9.48;7.60;;;15.40;92.10;;;;;;5003003;28;20036;-86
2023/06/17 22:41:32;;;;;;;9.15;8.25;;;15.30;92.00;;;;;;4987052;28;20037;-84
2023/06/17 22:43:57;;;;;;;9.55;8.15;;;15.30;92.20;;;;;;4997507;28;20037;-85
2023/06/17 22:46:25;;;;;;;11.35;9.20;;;15.30;92.50;;;;;;5006711;28;20054;-87
2023/06/17 22:48:50;;;;;;;9.48;8.35;;;15.20;93.40;;;;;;5008562;28;20042;-86
2023/06/17 22:51:16;;;;;;;10.65;8.77;;;15.20;93.60;;;;;;5005991;28;20034;-86
2023/06/17 22:53:42;;;;;;;11.57;8.15;;;15.10;93.60;;;;;;5006972;28;20398;-86
2023/06/17 22:56:08;;;;;;;9.95;8.50;;;15.00;93.60;;;;;;4995726;28;20037;-86
2023/06/17 22:58:33;;;;;;;10.82;8.20;;;15.00;93.50;;;;;;5005531;28;20030;-86
2023/06/17 23:01:00;;;;;;;12.02;8.35;;;15.00;93.60;;;;;;5005920;28;20092;-86
2023/06/17 23:03:25;;;;;;;9.45;8.45;;;14.90;93.90;;;;;;4995229;28;20033;-87
2023/06/17 23:05:51;;;;;;;10.20;8.80;;;14.90;94.20;;;;;;4994532;28;20064;-86
2023/06/17 23:08:21;;;;;;;10.27;8.55;;;14.90;94.00;;;;;;5002238;28;20042;-86
2023/06/17 23:10:47;;;;;;;10.93;9.18;;;14.90;94.40;;;;;;4993441;28;20079;-86
2023/06/17 23:13:14;;;;;;;11.13;8.68;;;14.90;94.50;;;;;;4994726;28;20034;-85
2023/06/17 23:15:40;;;;;;;11.40;8.55;;;14.80;95.20;;;;;;4988472;28;20060;-88
2023/06/17 23:18:05;;;;;;;10.27;8.73;;;14.80;95.00;;;;;;5015651;28;20399;-86
2023/06/17 23:20:31;;;;;;;13.77;9.10;;;14.80;95.60;;;;;;5001931;28;20038;-86
2023/06/17 23:22:57;;;;;;;10.48;9.02;;;14.80;95.70;;;;;;4994738;28;20038;-87
2023/06/17 23:25:26;;;;;;;10.98;8.88;;;14.70;95.90;;;;;;4998570;28;20033;-85
2023/06/17 23:27:52;;;;;;;12.48;9.35;;;14.70;95.90;;;;;;4981688;28;20397;-87
2023/06/17 23:30:19;;;;;;;10.90;9.45;;;14.70;96.50;;;;;;5000054;28;20041;-87
2023/06/17 23:32:46;;;;;;;10.73;9.52;;;14.70;96.60;;;;;;5001747;28;20034;-86
2023/06/17 23:35:12;;;;;;;12.85;9.90;;;14.60;96.50;;;;;;5010569;28;20030;-85
2023/06/17 23:37:38;;;;;;;11.43;9.20;;;14.60;96.60;;;;;;5005038;28;20072;-86
2023/06/17 23:40:05;;;;;;;13.75;9.73;;;14.60;96.80;;;;;;5008502;28;20120;-86
2023/06/17 23:42:31;;;;;;;12.27;10.98;;;14.50;97.40;;;;;;5000505;28;20119;-85
2023/06/17 23:44:59;;;;;;;12.13;10.00;;;14.50;98.20;;;;;;4994481;28;20482;-87
2023/06/17 23:47:25;;;;;;;17.90;11.95;;;14.50;97.70;;;;;;4989570;28;20124;-86
2023/06/17 23:49:53;;;;;;;14.65;10.52;;;14.50;97.80;;;;;;4977638;28;20061;-85
2023/06/17 23:52:20;;;;;;;13.80;11.25;;;14.40;97.80;;;;;;4981426;28;20044;-85
2023/06/17 23:54:46;;;;;;;14.20;11.10;;;14.40;98.00;;;;;;5013071;28;20036;-85
2023/06/17 23:57:12;;;;;;;11.88;9.73;;;14.40;98.10;;;;;;5004719;28;20087;-87
2023/06/17 23:59:38;;;;;;;13.32;10.55;;;14.30;98.50;;;;;;5005636;28;20613;-87
